Isla Nueva, Argentina
Current Conditions -  °F | °C
As of 3:00 PM on Thursday 25 Dec 2014 (Local Time) from SAWH Reporting Station
Drizzle Drizzle  
Wind Chill: 43°   Ceiling: 4000
Heat Index: 48°   Visibility: 6mi
Dew Point: 39°   Wind: 12mph
Humidity: 71%   Direction: 320°NW
Pressure: 29"   Gusts: 37mph
Location:  55.25°S, 66.49°W
Report Text: SAWH 251800Z 32010G32KT 9999 DZ BKN04009/04 Q0982
Loading
Personal Weather Stations






























Interactive Weather Map New forecast layout! Learn more

10-Day Weather Forecast

Advertisements
Track Severe Weather on mobile